Terminal Aerodrome Forecast
Issued by NWS Wilmington, OH

Current Version | Previous Version | Graphics & Text | Print | Product List | Glossary On
Versions: 1 2 3 4 5 6 7 8 9 10 11 12 13 14 15 16 17 18 19 20 21 22 23
000
FTUS41 KILN 011600 AAB
TAFILN
TAF AMD
KILN 011614Z 0116/0212 VRB05KT P6SM BKN010
     FM011700 08005KT P6SM SCT010
     FM012300 11004KT P6SM SKC
     FM020900 13004KT 4SM BR SCT200=

USA.gov is the U.S. government's official web portal to all federal, state and local government web resources and services.